createdAt,value
2019-06-01T00:01:53.758Z,29.00
2019-06-01T00:04:23.189Z,29.00
2019-06-01T00:06:49.821Z,29.00
2019-06-01T00:09:17.093Z,29.00
2019-06-01T00:11:45.522Z,28.90
2019-06-01T00:14:13.008Z,28.90
2019-06-01T00:16:41.802Z,28.90
2019-06-01T00:19:09.858Z,28.80
2019-06-01T00:21:36.816Z,28.80
2019-06-01T00:24:03.614Z,28.70
2019-06-01T00:26:30.589Z,28.60
2019-06-01T00:28:57.301Z,28.50
2019-06-01T00:31:23.897Z,28.50
2019-06-01T00:33:51.766Z,28.30
2019-06-01T00:36:18.360Z,28.30
2019-06-01T00:38:45.728Z,28.20
2019-06-01T00:41:12.712Z,28.10
2019-06-01T00:43:41.875Z,28.10
2019-06-01T00:46:08.595Z,28.00
2019-06-01T00:48:36.390Z,28.00
2019-06-01T00:51:03.106Z,28.00
2019-06-01T00:53:29.657Z,28.00
2019-06-01T00:55:56.369Z,28.10
2019-06-01T00:58:22.944Z,28.10
2019-06-01T01:00:51.076Z,28.10
2019-06-01T01:03:17.891Z,28.00
2019-06-01T01:05:44.698Z,28.00
2019-06-01T01:08:11.243Z,28.00
2019-06-01T01:10:37.841Z,28.00
2019-06-01T01:13:12.215Z,28.00
2019-06-01T01:15:38.834Z,28.00
2019-06-01T01:18:07.032Z,27.90
2019-06-01T01:20:34.648Z,28.00
2019-06-01T01:23:01.355Z,28.00
2019-06-01T01:25:29.836Z,28.10
2019-06-01T01:27:57.049Z,28.10
2019-06-01T01:30:23.681Z,28.10
2019-06-01T01:32:51.845Z,28.20
2019-06-01T01:35:18.923Z,28.20
2019-06-01T01:37:45.629Z,28.20
2019-06-01T01:40:13.534Z,28.30
2019-06-01T01:42:40.167Z,28.30
2019-06-01T01:45:09.200Z,28.30
2019-06-01T01:47:36.094Z,28.30
2019-06-01T01:50:05.569Z,28.30
2019-06-01T01:52:32.084Z,28.30
2019-06-01T01:54:59.108Z,28.30
2019-06-01T01:57:25.653Z,28.30
2019-06-01T01:59:53.287Z,28.20
2019-06-01T02:02:20.151Z,28.20
2019-06-01T02:04:46.709Z,28.10
2019-06-01T02:07:13.261Z,28.10
2019-06-01T02:09:40.071Z,28.10
2019-06-01T02:12:06.603Z,28.00
2019-06-01T02:14:33.278Z,28.00
2019-06-01T02:17:00.248Z,28.00
2019-06-01T02:19:26.975Z,28.00
2019-06-01T02:21:54.463Z,27.90
2019-06-01T02:24:21.211Z,27.90
2019-06-01T02:26:47.766Z,27.80
2019-06-01T02:29:14.452Z,27.80
2019-06-01T02:31:43.009Z,27.80
2019-06-01T02:34:09.904Z,27.80
2019-06-01T02:36:36.355Z,27.80
2019-06-01T02:39:06.913Z,27.80
2019-06-01T02:41:33.759Z,27.80
2019-06-01T02:44:01.690Z,27.80
2019-06-01T02:46:29.098Z,27.90
2019-06-01T02:48:57.252Z,27.90
2019-06-01T02:51:24.076Z,27.90
2019-06-01T02:53:51.051Z,27.90
2019-06-01T02:56:17.784Z,28.00
2019-06-01T02:58:44.452Z,27.90
2019-06-01T03:01:21.103Z,27.90
2019-06-01T03:04:01.377Z,27.90
2019-06-01T03:06:29.944Z,27.80
2019-06-01T03:08:59.757Z,27.80
2019-06-01T03:11:30.158Z,27.80
2019-06-01T03:14:00.270Z,27.90
2019-06-01T03:16:28.229Z,27.90
2019-06-01T03:19:00.035Z,27.90
2019-06-01T03:21:32.428Z,27.90
2019-06-01T03:24:08.640Z,28.00
2019-06-01T03:26:41.359Z,28.10
2019-06-01T03:29:12.645Z,28.20
2019-06-01T03:31:39.355Z,28.30
2019-06-01T03:34:08.281Z,28.30
2019-06-01T03:36:34.787Z,28.30
2019-06-01T03:39:02.096Z,28.40
2019-06-01T03:41:30.383Z,28.40
2019-06-01T03:43:57.458Z,28.40
2019-06-01T03:46:23.918Z,28.50
2019-06-01T03:48:51.356Z,28.50
2019-06-01T03:51:18.197Z,28.60
2019-06-01T03:53:44.837Z,28.60
2019-06-01T03:56:11.642Z,28.70
2019-06-01T03:58:38.412Z,28.90
2019-06-01T04:01:07.066Z,29.00
2019-06-01T04:03:35.415Z,29.20
2019-06-01T04:06:03.328Z,29.40
2019-06-01T04:08:30.283Z,29.60
2019-06-01T04:10:56.950Z,29.70
2019-06-01T04:13:23.910Z,29.90
2019-06-01T04:15:50.943Z,30.20
2019-06-01T04:18:17.757Z,30.40
2019-06-01T04:20:44.621Z,30.70
2019-06-01T04:23:12.398Z,31.10
2019-06-01T04:25:38.961Z,31.60
2019-06-01T04:28:08.168Z,32.20
2019-06-01T04:30:34.828Z,32.90
2019-06-01T04:33:02.550Z,33.60
2019-06-01T04:35:29.353Z,34.20
2019-06-01T04:37:55.912Z,34.80
2019-06-01T04:40:22.605Z,35.30
2019-06-01T04:42:49.768Z,35.80
2019-06-01T04:45:17.865Z,36.20
2019-06-01T04:47:44.759Z,36.60
2019-06-01T04:50:13.133Z,36.90
2019-06-01T04:52:39.758Z,37.20
2019-06-01T04:55:07.363Z,37.50
2019-06-01T04:57:34.239Z,37.70
2019-06-01T05:00:00.766Z,37.90
2019-06-01T05:02:27.435Z,38.20
2019-06-01T05:04:54.155Z,38.40
2019-06-01T05:07:20.723Z,38.60
2019-06-01T05:09:47.522Z,38.90
2019-06-01T05:12:15.487Z,39.10
2019-06-01T05:14:42.116Z,39.30
2019-06-01T05:17:10.066Z,39.50
2019-06-01T05:19:36.824Z,39.70
2019-06-01T05:22:03.485Z,39.80
2019-06-01T05:24:30.729Z,40.00
2019-06-01T05:26:57.674Z,40.10
2019-06-01T05:29:24.246Z,40.40
2019-06-01T05:31:50.881Z,40.60
2019-06-01T05:34:18.357Z,40.90
2019-06-01T05:36:45.233Z,41.10
2019-06-01T05:39:12.339Z,41.30
2019-06-01T05:41:39.158Z,41.40
2019-06-01T05:44:06.090Z,41.60
2019-06-01T05:46:33.643Z,41.70
2019-06-01T05:49:01.100Z,41.90
2019-06-01T05:51:27.937Z,42.10
2019-06-01T05:53:55.444Z,42.30
2019-06-01T05:56:23.049Z,42.40
2019-06-01T05:58:50.857Z,42.60
2019-06-01T06:01:19.632Z,42.70
2019-06-01T06:03:45.880Z,42.80
2019-06-01T06:06:13.883Z,43.00
2019-06-01T06:08:40.681Z,43.20
2019-06-01T06:11:07.538Z,43.20
2019-06-01T06:13:34.088Z,43.30
2019-06-01T06:16:00.525Z,43.30
2019-06-01T06:18:30.523Z,43.30
2019-06-01T06:20:57.286Z,43.50
2019-06-01T06:23:24.021Z,43.60
2019-06-01T06:25:50.767Z,43.70
2019-06-01T06:28:18.741Z,43.70
2019-06-01T06:30:45.367Z,43.70
2019-06-01T06:33:13.179Z,43.70
2019-06-01T06:35:39.885Z,43.70
2019-06-01T06:38:06.541Z,43.80
2019-06-01T06:40:33.355Z,43.80
2019-06-01T06:43:00.109Z,43.90
2019-06-01T06:45:26.690Z,43.90
2019-06-01T06:47:53.580Z,43.90
2019-06-01T06:50:21.344Z,43.80
2019-06-01T06:52:47.992Z,43.80
2019-06-01T06:55:15.723Z,43.60
2019-06-01T06:57:42.247Z,43.40
2019-06-01T07:00:10.229Z,43.20
2019-06-01T07:02:37.700Z,43.00
2019-06-01T07:05:05.963Z,43.00
2019-06-01T07:07:32.722Z,42.90
2019-06-01T07:09:59.644Z,42.80
2019-06-01T07:12:27.430Z,42.70
2019-06-01T07:14:54.372Z,42.60
2019-06-01T07:17:21.510Z,42.50
2019-06-01T07:19:48.735Z,42.30
2019-06-01T07:22:17.161Z,42.00
2019-06-01T07:24:43.921Z,42.00
2019-06-01T07:27:10.623Z,41.90
2019-06-01T07:29:37.383Z,42.00
2019-06-01T07:32:04.456Z,42.00
2019-06-01T07:34:40.224Z,42.10
2019-06-01T07:36:59.647Z,42.10
2019-06-01T07:39:26.874Z,42.10
2019-06-01T07:41:53.670Z,42.30
2019-06-01T07:44:20.904Z,42.40
2019-06-01T07:46:48.062Z,42.70
2019-06-01T07:49:15.190Z,43.00
2019-06-01T07:51:41.915Z,43.20
2019-06-01T07:54:09.304Z,43.40
2019-06-01T07:56:36.136Z,43.50
2019-06-01T07:59:03.023Z,43.70
2019-06-01T08:01:31.538Z,43.80
2019-06-01T08:03:59.024Z,43.80
2019-06-01T08:06:26.191Z,43.90
2019-06-01T08:08:54.484Z,43.90
2019-06-01T08:11:21.600Z,43.90
2019-06-01T08:13:48.194Z,43.70
2019-06-01T08:16:15.181Z,43.50
2019-06-01T08:18:41.949Z,43.30
2019-06-01T08:21:08.995Z,43.20
2019-06-01T08:23:35.743Z,43.10
2019-06-01T08:26:03.093Z,43.00
2019-06-01T08:28:30.915Z,42.90
2019-06-01T08:30:59.241Z,42.80
2019-06-01T08:33:30.196Z,42.80
2019-06-01T08:35:54.783Z,42.90
2019-06-01T08:38:21.663Z,42.80
2019-06-01T08:40:48.556Z,42.80
2019-06-01T08:43:16.600Z,43.00
2019-06-01T08:45:43.597Z,43.10
2019-06-01T08:48:10.097Z,43.10
2019-06-01T08:50:37.139Z,42.90
2019-06-01T08:53:06.780Z,42.40
2019-06-01T08:55:35.407Z,41.90
2019-06-01T08:58:02.872Z,41.50
2019-06-01T09:00:30.600Z,41.20
2019-06-01T09:02:57.311Z,40.90
2019-06-01T09:05:26.136Z,40.90
2019-06-01T09:07:52.551Z,41.00
2019-06-01T09:10:19.489Z,41.00
2019-06-01T09:12:46.052Z,41.20
2019-06-01T09:15:13.293Z,41.60
2019-06-01T09:17:40.074Z,41.70
2019-06-01T09:20:07.021Z,41.70
2019-06-01T09:22:35.734Z,41.80
2019-06-01T09:25:03.386Z,41.90
2019-06-01T09:27:31.836Z,41.80
2019-06-01T09:29:59.154Z,41.70
2019-06-01T09:32:26.100Z,41.50
2019-06-01T09:34:53.335Z,41.50
2019-06-01T09:37:20.103Z,41.60
2019-06-01T09:39:46.655Z,41.80
2019-06-01T09:42:13.140Z,41.80
2019-06-01T09:44:40.132Z,41.80
2019-06-01T09:47:07.247Z,41.70
2019-06-01T09:49:35.713Z,41.70
2019-06-01T09:52:03.745Z,41.80
2019-06-01T09:54:31.458Z,41.90
2019-06-01T09:56:59.067Z,42.10
2019-06-01T09:59:36.042Z,42.40
2019-06-01T10:02:02.964Z,42.40
2019-06-01T10:04:30.204Z,42.40
2019-06-01T10:06:57.563Z,42.40
2019-06-01T10:09:24.842Z,42.40
2019-06-01T10:11:52.645Z,42.40
2019-06-01T10:14:21.103Z,42.50
2019-06-01T10:16:50.714Z,42.40
2019-06-01T10:19:18.280Z,42.40
2019-06-01T10:21:46.729Z,42.60
2019-06-01T10:24:13.820Z,42.80
2019-06-01T10:26:41.929Z,42.90
2019-06-01T10:29:09.202Z,43.20
2019-06-01T10:31:41.022Z,43.40
2019-06-01T10:34:05.602Z,43.50
2019-06-01T10:36:33.954Z,43.60
2019-06-01T10:39:00.567Z,43.60
2019-06-01T10:41:27.124Z,43.80
2019-06-01T10:43:54.269Z,43.80
2019-06-01T10:46:20.925Z,43.90
2019-06-01T10:48:47.738Z,44.10
2019-06-01T10:51:14.600Z,44.10
2019-06-01T10:53:43.595Z,44.10
2019-06-01T10:56:10.037Z,43.80
2019-06-01T10:58:54.553Z,43.40
2019-06-01T11:01:07.090Z,42.90
2019-06-01T11:03:34.622Z,42.60
2019-06-01T11:06:01.627Z,42.50
2019-06-01T11:08:28.721Z,42.30
2019-06-01T11:10:55.591Z,42.10
2019-06-01T11:13:23.042Z,42.00
2019-06-01T11:15:49.688Z,41.90
2019-06-01T11:18:16.365Z,41.80
2019-06-01T11:20:43.625Z,41.80
2019-06-01T11:23:10.043Z,41.90
2019-06-01T11:25:37.558Z,41.90
2019-06-01T11:28:04.800Z,42.10
2019-06-01T11:30:33.467Z,42.10
2019-06-01T11:33:00.570Z,42.20
2019-06-01T11:35:27.767Z,42.20
2019-06-01T11:37:54.762Z,42.20
2019-06-01T11:40:22.604Z,42.20
2019-06-01T11:42:49.776Z,42.20
2019-06-01T11:45:16.556Z,42.20
2019-06-01T11:47:43.149Z,42.10
2019-06-01T11:50:10.765Z,42.20
2019-06-01T11:52:37.488Z,42.30
2019-06-01T11:55:06.387Z,42.30
2019-06-01T11:57:35.187Z,42.20
2019-06-01T12:00:10.767Z,42.30
2019-06-01T12:02:38.031Z,42.40
2019-06-01T12:05:07.721Z,42.80
2019-06-01T12:07:34.265Z,43.10
2019-06-01T12:10:04.545Z,43.50
2019-06-01T12:12:31.872Z,43.60
2019-06-01T12:14:59.614Z,43.70
2019-06-01T12:17:26.931Z,43.70
2019-06-01T12:19:53.577Z,43.80
2019-06-01T12:22:20.139Z,43.80
2019-06-01T12:24:47.503Z,43.90
2019-06-01T12:27:15.496Z,44.10
2019-06-01T12:29:42.056Z,44.30
2019-06-01T12:32:09.254Z,44.50
2019-06-01T12:34:35.825Z,44.60
2019-06-01T12:37:03.296Z,44.60
2019-06-01T12:39:31.328Z,44.50
2019-06-01T12:41:58.073Z,44.50
2019-06-01T12:44:24.718Z,44.50
2019-06-01T12:46:51.617Z,44.60
2019-06-01T12:49:18.406Z,44.70
2019-06-01T12:51:46.944Z,44.80
2019-06-01T12:54:13.838Z,44.80
2019-06-01T12:56:40.807Z,44.80
2019-06-01T12:59:07.920Z,44.80
2019-06-01T13:01:34.932Z,44.80
2019-06-01T13:04:01.705Z,44.70
2019-06-01T13:06:28.754Z,44.60
2019-06-01T13:08:56.149Z,44.50
2019-06-01T13:11:22.808Z,44.50
2019-06-01T13:13:51.428Z,44.40
2019-06-01T13:16:18.553Z,44.40
2019-06-01T13:18:45.549Z,44.20
2019-06-01T13:21:12.386Z,44.30
2019-06-01T13:23:39.440Z,44.30
2019-06-01T13:26:06.295Z,44.50
2019-06-01T13:28:38.165Z,44.50
2019-06-01T13:31:03.855Z,44.60
2019-06-01T13:33:31.102Z,44.70
2019-06-01T13:35:57.550Z,44.80
2019-06-01T13:38:24.695Z,44.80
2019-06-01T13:40:53.124Z,44.70
2019-06-01T13:43:20.100Z,44.80
2019-06-01T13:45:47.473Z,44.70
2019-06-01T13:48:14.271Z,44.50
2019-06-01T13:50:41.070Z,44.30
2019-06-01T13:53:08.051Z,44.10
2019-06-01T13:55:35.022Z,44.00
2019-06-01T13:58:01.637Z,43.80
2019-06-01T14:00:30.529Z,43.80
2019-06-01T14:02:57.736Z,43.80
2019-06-01T14:05:24.909Z,43.80
2019-06-01T14:07:52.066Z,43.70
2019-06-01T14:10:19.966Z,43.60
2019-06-01T14:12:47.425Z,43.40
2019-06-01T14:15:15.736Z,43.30
2019-06-01T14:17:42.681Z,43.20
2019-06-01T14:20:09.742Z,43.00
2019-06-01T14:22:36.611Z,42.70
2019-06-01T14:25:12.379Z,42.50
2019-06-01T14:27:33.676Z,42.50
2019-06-01T14:30:00.746Z,42.50
2019-06-01T14:32:28.713Z,42.40
2019-06-01T14:34:56.938Z,42.40
2019-06-01T14:37:24.601Z,42.40
2019-06-01T14:39:52.776Z,42.40
2019-06-01T14:42:19.393Z,42.30
2019-06-01T14:44:47.181Z,42.20
2019-06-01T14:47:14.098Z,42.10
2019-06-01T14:49:40.976Z,41.90
2019-06-01T14:52:08.023Z,41.70
2019-06-01T14:54:35.070Z,41.50
2019-06-01T14:57:01.881Z,41.40
2019-06-01T14:59:30.462Z,41.20
2019-06-01T15:02:00.019Z,40.90
2019-06-01T15:04:27.764Z,40.80
2019-06-01T15:06:58.684Z,40.60
2019-06-01T15:09:25.548Z,40.60
2019-06-01T15:11:52.486Z,40.50
2019-06-01T15:14:20.496Z,40.50
2019-06-01T15:16:47.073Z,40.50
2019-06-01T15:19:13.535Z,40.50
2019-06-01T15:21:40.381Z,40.60
2019-06-01T15:24:07.213Z,40.70
2019-06-01T15:26:33.942Z,40.60
2019-06-01T15:29:01.150Z,40.60
2019-06-01T15:31:28.616Z,40.60
2019-06-01T15:33:57.368Z,40.50
2019-06-01T15:36:24.338Z,40.50
2019-06-01T15:38:51.646Z,40.50
2019-06-01T15:41:18.423Z,40.40
2019-06-01T15:43:45.816Z,40.30
2019-06-01T15:46:12.729Z,40.20
2019-06-01T15:48:39.674Z,40.00
2019-06-01T15:51:07.414Z,40.00
2019-06-01T15:53:34.379Z,39.90
2019-06-01T15:56:01.534Z,39.80
2019-06-01T15:58:28.843Z,39.70
2019-06-01T16:00:56.727Z,39.90
2019-06-01T16:03:23.921Z,39.90
2019-06-01T16:05:50.951Z,40.00
2019-06-01T16:08:17.656Z,40.10
2019-06-01T16:10:44.282Z,40.30
2019-06-01T16:13:11.420Z,40.40
2019-06-01T16:15:38.223Z,40.50
2019-06-01T16:18:05.729Z,40.40
2019-06-01T16:20:32.834Z,40.50
2019-06-01T16:23:00.347Z,40.40
2019-06-01T16:25:27.220Z,40.30
2019-06-01T16:27:54.612Z,40.40
2019-06-01T16:30:21.353Z,40.40
2019-06-01T16:32:48.210Z,40.50
2019-06-01T16:35:15.234Z,40.50
2019-06-01T16:37:41.838Z,40.40
2019-06-01T16:40:10.622Z,40.40
2019-06-01T16:42:37.744Z,40.30
2019-06-01T16:45:06.779Z,40.30
2019-06-01T16:47:33.645Z,40.30
2019-06-01T16:50:01.809Z,40.30
2019-06-01T16:52:29.071Z,40.20
2019-06-01T16:54:56.215Z,40.20
2019-06-01T16:57:23.097Z,40.30
2019-06-01T16:59:50.474Z,40.30
2019-06-01T17:02:17.461Z,40.30
2019-06-01T17:04:44.662Z,40.40
2019-06-01T17:07:11.262Z,40.50
2019-06-01T17:09:38.040Z,40.50
2019-06-01T17:12:05.271Z,40.60
2019-06-01T17:14:32.295Z,40.70
2019-06-01T17:16:59.299Z,40.80
2019-06-01T17:19:26.407Z,40.80
2019-06-01T17:21:53.213Z,40.90
2019-06-01T17:24:21.008Z,41.00
2019-06-01T17:26:48.083Z,41.00
2019-06-01T17:29:14.871Z,41.00
2019-06-01T17:31:53.819Z,40.80
2019-06-01T17:34:10.866Z,40.80
2019-06-01T17:36:37.979Z,40.70
2019-06-01T17:39:06.088Z,40.60
2019-06-01T17:41:33.469Z,40.50
2019-06-01T17:44:00.558Z,40.40
2019-06-01T17:46:27.513Z,40.50
2019-06-01T17:48:54.654Z,40.40
2019-06-01T17:51:21.497Z,40.40
2019-06-01T17:53:48.443Z,40.40
2019-06-01T17:56:16.021Z,40.30
2019-06-01T17:58:42.887Z,40.10
2019-06-01T18:01:09.998Z,40.00
2019-06-01T18:03:37.487Z,39.90
2019-06-01T18:06:05.733Z,39.70
2019-06-01T18:08:32.811Z,39.60
2019-06-01T18:11:01.866Z,39.40
2019-06-01T18:13:28.955Z,39.20
2019-06-01T18:15:55.662Z,38.90
2019-06-01T18:18:22.806Z,38.70
2019-06-01T18:20:49.869Z,38.50
2019-06-01T18:23:16.967Z,38.20
2019-06-01T18:25:44.697Z,38.00
2019-06-01T18:28:16.107Z,37.80
2019-06-01T18:30:40.834Z,37.60
2019-06-01T18:33:09.024Z,37.40
2019-06-01T18:35:36.163Z,37.30
2019-06-01T18:38:03.730Z,37.10
2019-06-01T18:40:32.342Z,36.90
2019-06-01T18:43:03.783Z,36.80
2019-06-01T18:45:31.556Z,36.70
2019-06-01T18:47:58.754Z,36.60
2019-06-01T18:50:25.844Z,36.50
2019-06-01T18:52:52.837Z,36.30
2019-06-01T18:55:19.645Z,36.10
2019-06-01T18:57:50.277Z,35.80
2019-06-01T19:00:17.822Z,35.60
2019-06-01T19:02:45.578Z,35.60
2019-06-01T19:05:13.362Z,35.50
2019-06-01T19:07:40.103Z,35.30
2019-06-01T19:10:09.447Z,35.20
2019-06-01T19:12:37.374Z,35.20
2019-06-01T19:15:10.942Z,35.00
2019-06-01T19:17:34.927Z,34.90
2019-06-01T19:20:02.077Z,34.80
2019-06-01T19:22:30.233Z,34.80
2019-06-01T19:24:57.480Z,34.80
2019-06-01T19:27:24.460Z,34.70
2019-06-01T19:29:51.221Z,34.70
2019-06-01T19:32:21.028Z,34.70
2019-06-01T19:34:47.957Z,34.60
2019-06-01T19:37:17.221Z,34.70
2019-06-01T19:39:45.063Z,34.60
2019-06-01T19:42:13.314Z,34.50
2019-06-01T19:44:40.564Z,34.50
2019-06-01T19:47:07.772Z,34.40
2019-06-01T19:49:34.871Z,34.30
2019-06-01T19:52:01.800Z,34.30
2019-06-01T19:54:28.951Z,34.20
2019-06-01T19:56:56.845Z,34.10
2019-06-01T19:59:23.761Z,34.00
2019-06-01T20:01:51.226Z,33.90
2019-06-01T20:04:18.706Z,33.80
2019-06-01T20:06:45.725Z,33.80
2019-06-01T20:09:13.040Z,33.70
2019-06-01T20:11:40.038Z,33.60
2019-06-01T20:14:06.663Z,33.50
2019-06-01T20:16:33.861Z,33.30
2019-06-01T20:19:00.867Z,33.20
2019-06-01T20:21:27.836Z,33.20
2019-06-01T20:23:55.008Z,33.10
2019-06-01T20:26:38.701Z,33.10
2019-06-01T20:28:50.817Z,33.00
2019-06-01T20:31:17.956Z,33.00
2019-06-01T20:33:44.719Z,33.00
2019-06-01T20:36:12.085Z,32.90
2019-06-01T20:38:39.145Z,32.80
2019-06-01T20:41:05.761Z,32.70
2019-06-01T20:43:32.503Z,32.70
2019-06-01T20:45:59.574Z,32.70
2019-06-01T20:48:26.443Z,32.60
2019-06-01T20:50:53.847Z,32.60
2019-06-01T20:53:21.091Z,32.70
2019-06-01T20:55:49.510Z,32.70
2019-06-01T20:58:19.545Z,32.60
2019-06-01T21:00:46.242Z,32.60
2019-06-01T21:03:13.742Z,32.60
2019-06-01T21:05:41.212Z,32.60
2019-06-01T21:08:08.134Z,32.60
2019-06-01T21:10:34.843Z,32.50
2019-06-01T21:13:02.312Z,32.50
2019-06-01T21:15:30.493Z,32.40
2019-06-01T21:17:58.590Z,32.40
2019-06-01T21:20:29.832Z,32.40
2019-06-01T21:22:54.712Z,32.30
2019-06-01T21:25:22.854Z,32.30
2019-06-01T21:27:50.341Z,32.30
2019-06-01T21:30:22.231Z,32.30
2019-06-01T21:32:48.076Z,32.30
2019-06-01T21:35:17.233Z,32.20
2019-06-01T21:37:44.167Z,32.20
2019-06-01T21:40:11.188Z,32.10
2019-06-01T21:42:39.543Z,32.00
2019-06-01T21:45:08.697Z,32.00
2019-06-01T21:47:35.385Z,31.90
2019-06-01T21:50:06.683Z,31.90
2019-06-01T21:52:34.221Z,31.90
2019-06-01T21:55:01.062Z,31.80
2019-06-01T21:57:27.607Z,31.80
2019-06-01T21:59:54.955Z,31.80
2019-06-01T22:02:23.048Z,31.70
2019-06-01T22:04:50.109Z,31.80
2019-06-01T22:07:19.177Z,31.70
2019-06-01T22:09:47.245Z,31.70
2019-06-01T22:12:14.190Z,31.70
2019-06-01T22:14:41.060Z,31.60
2019-06-01T22:17:08.004Z,31.60
2019-06-01T22:19:35.333Z,31.50
2019-06-01T22:22:02.723Z,31.50
2019-06-01T22:24:31.495Z,31.50
2019-06-01T22:27:00.392Z,31.30
2019-06-01T22:29:28.590Z,31.20
2019-06-01T22:31:55.983Z,31.20
2019-06-01T22:34:23.059Z,31.20
2019-06-01T22:36:50.246Z,31.20
2019-06-01T22:39:19.252Z,31.10
2019-06-01T22:41:47.588Z,31.20
2019-06-01T22:44:15.779Z,31.10
2019-06-01T22:46:42.730Z,31.10
2019-06-01T22:49:09.424Z,31.10
2019-06-01T22:51:36.531Z,31.00
2019-06-01T22:54:03.875Z,31.00
2019-06-01T22:56:31.522Z,30.90
2019-06-01T22:58:58.963Z,30.90
2019-06-01T23:01:26.816Z,30.90
2019-06-01T23:03:53.648Z,30.90
2019-06-01T23:06:20.937Z,30.90
2019-06-01T23:08:47.826Z,31.00
2019-06-01T23:11:15.027Z,31.00
2019-06-01T23:13:52.685Z,31.00
2019-06-01T23:16:11.537Z,31.00
2019-06-01T23:18:38.424Z,30.90
2019-06-01T23:21:05.782Z,30.90
2019-06-01T23:23:33.034Z,30.90
2019-06-01T23:25:59.899Z,30.90
2019-06-01T23:28:28.420Z,30.80
2019-06-01T23:30:55.491Z,30.80
2019-06-01T23:33:22.752Z,30.70
2019-06-01T23:35:49.919Z,30.70
2019-06-01T23:38:16.807Z,30.70
2019-06-01T23:40:43.627Z,30.70
2019-06-01T23:43:10.701Z,30.60
2019-06-01T23:45:37.504Z,30.60
2019-06-01T23:48:04.293Z,30.60
2019-06-01T23:50:32.529Z,30.60
2019-06-01T23:53:12.717Z,30.60
2019-06-01T23:55:29.879Z,30.60
2019-06-01T23:57:57.346Z,30.60
